createdAt,value
2023-03-14T00:01:46.726Z,1.00
2023-03-14T00:04:17.045Z,1.00
2023-03-14T00:06:48.043Z,1.00
2023-03-14T00:09:16.818Z,1.00
2023-03-14T00:11:45.608Z,1.00
2023-03-14T00:14:14.404Z,1.00
2023-03-14T00:16:43.187Z,1.00
2023-03-14T00:19:11.948Z,1.00
2023-03-14T00:21:42.151Z,1.00
2023-03-14T00:24:11.235Z,1.00
2023-03-14T00:26:40.044Z,1.00
2023-03-14T00:29:08.906Z,1.00
2023-03-14T00:31:38.323Z,1.00
2023-03-14T00:34:07.146Z,1.00
2023-03-14T00:36:35.939Z,1.00
2023-03-14T00:39:06.121Z,1.00
2023-03-14T00:41:34.857Z,1.00
2023-03-14T00:44:03.722Z,1.00
2023-03-14T00:46:32.474Z,1.00
2023-03-14T00:49:01.250Z,1.00
2023-03-14T00:51:29.990Z,1.00
2023-03-14T00:53:58.792Z,1.00
2023-03-14T00:56:28.943Z,1.00
2023-03-14T00:58:57.902Z,1.00
2023-03-14T01:01:27.179Z,1.00
2023-03-14T01:03:56.505Z,1.00
2023-03-14T01:06:26.886Z,1.00
2023-03-14T01:08:56.736Z,1.00
2023-03-14T01:11:28.085Z,1.00
2023-03-14T01:13:58.728Z,1.00
2023-03-14T01:16:30.611Z,22.60
2023-03-14T01:18:59.443Z,1.00
2023-03-14T01:21:30.050Z,1.00
2023-03-14T01:24:00.556Z,1.00
2023-03-14T01:26:32.320Z,1.00
2023-03-14T01:29:03.039Z,1.00
2023-03-14T01:31:31.913Z,1.00
2023-03-14T01:34:00.722Z,1.00
2023-03-14T01:36:31.706Z,1.00
2023-03-14T01:39:00.594Z,1.00
2023-03-14T01:41:29.996Z,15.60
2023-03-14T01:43:58.689Z,13.10
2023-03-14T01:46:38.933Z,8.90
2023-03-14T01:49:22.237Z,10.30
2023-03-14T01:51:56.697Z,5.70
2023-03-14T01:54:30.300Z,1.00
2023-03-14T01:57:05.297Z,1.70
2023-03-14T01:59:35.248Z,1.00
2023-03-14T02:05:34.515Z,42.70
2023-03-14T02:08:05.376Z,64.50
2023-03-14T02:10:38.374Z,87.70
2023-03-14T02:13:08.796Z,99.90
2023-03-14T02:15:38.263Z,99.90
2023-03-14T02:18:09.503Z,99.90
2023-03-14T02:20:42.940Z,99.90
2023-03-14T02:23:11.999Z,99.90
2023-03-14T02:25:48.545Z,99.90
2023-03-14T02:28:19.223Z,99.90
2023-03-14T02:30:48.650Z,99.90
2023-03-14T02:33:20.812Z,99.90
2023-03-14T02:35:53.074Z,99.90
2023-03-14T02:38:26.499Z,99.90
2023-03-14T02:40:55.420Z,99.90
2023-03-14T02:43:25.817Z,99.90
2023-03-14T02:45:55.547Z,99.90
2023-03-14T02:48:27.983Z,99.90
2023-03-14T02:50:58.431Z,96.40
2023-03-14T02:53:30.392Z,50.80
2023-03-14T02:55:59.365Z,35.60
2023-03-14T02:58:30.545Z,24.80
2023-03-14T03:00:59.260Z,4.80
2023-03-14T03:03:28.089Z,2.90
2023-03-14T03:05:58.482Z,1.00
2023-03-14T03:08:29.317Z,1.00
2023-03-14T03:10:59.107Z,1.00
2023-03-14T03:13:29.316Z,8.90
2023-03-14T03:15:58.374Z,11.80
2023-03-14T03:18:27.176Z,12.70
2023-03-14T03:20:55.882Z,15.90
2023-03-14T03:23:24.613Z,9.80
2023-03-14T03:25:54.071Z,3.00
2023-03-14T03:28:23.138Z,4.20
2023-03-14T03:30:53.293Z,1.00
2023-03-14T03:33:23.595Z,1.00
2023-03-14T03:35:53.652Z,1.00
2023-03-14T03:38:22.486Z,1.00
2023-03-14T03:40:51.205Z,1.00
2023-03-14T03:43:20.107Z,1.20
2023-03-14T03:45:48.870Z,4.20
2023-03-14T03:48:19.217Z,12.80
2023-03-14T03:50:48.612Z,9.90
2023-03-14T03:53:26.909Z,6.10
2023-03-14T03:56:02.237Z,12.20
2023-03-14T03:58:30.977Z,12.70
2023-03-14T04:00:59.726Z,4.00
2023-03-14T04:03:30.155Z,8.20
2023-03-14T04:06:02.775Z,5.70
2023-03-14T04:08:31.774Z,3.70
2023-03-14T04:11:01.610Z,6.00
2023-03-14T04:13:31.388Z,1.00
2023-03-14T04:16:00.422Z,1.00
2023-03-14T04:18:31.516Z,1.00
2023-03-14T04:21:00.847Z,1.00
2023-03-14T04:23:29.613Z,1.00
2023-03-14T04:25:58.378Z,1.00
2023-03-14T04:28:27.096Z,1.00
2023-03-14T04:30:55.833Z,1.00
2023-03-14T04:33:24.569Z,1.00
2023-03-14T04:35:56.699Z,1.00
2023-03-14T04:38:25.481Z,1.00
2023-03-14T04:40:54.233Z,1.00
2023-03-14T04:43:22.990Z,1.00
2023-03-14T04:45:51.743Z,1.00
2023-03-14T04:48:20.468Z,1.00
2023-03-14T04:50:49.857Z,1.00
2023-03-14T04:53:21.350Z,1.00
2023-03-14T04:55:53.138Z,1.00
2023-03-14T04:58:21.908Z,1.00
2023-03-14T05:00:50.742Z,1.00
2023-03-14T05:03:20.550Z,1.00
2023-03-14T05:05:49.664Z,1.00
2023-03-14T05:08:19.883Z,1.00
2023-03-14T05:10:54.810Z,1.00
2023-03-14T05:13:23.702Z,1.00
2023-03-14T05:15:52.891Z,1.00
2023-03-14T05:18:21.684Z,41.70
2023-03-14T05:20:53.475Z,33.80
2023-03-14T05:23:23.657Z,32.90
2023-03-14T05:25:52.354Z,47.90
2023-03-14T05:28:21.129Z,99.90
2023-03-14T05:30:49.939Z,99.90
2023-03-14T05:33:18.658Z,99.90
2023-03-14T05:35:47.397Z,99.90
2023-03-14T05:38:16.185Z,99.90
2023-03-14T05:40:48.208Z,99.90
2023-03-14T05:43:17.311Z,99.90
2023-03-14T05:45:46.197Z,99.90
2023-03-14T05:48:14.991Z,99.90
2023-03-14T05:50:43.771Z,99.90
2023-03-14T05:53:12.518Z,99.90
2023-03-14T05:55:41.579Z,99.90
2023-03-14T05:58:11.765Z,99.90
2023-03-14T06:00:40.619Z,99.90
2023-03-14T06:03:09.343Z,99.90
2023-03-14T06:05:38.174Z,99.90
2023-03-14T06:08:07.475Z,99.90
2023-03-14T06:10:37.782Z,99.90
2023-03-14T06:13:06.639Z,99.90
2023-03-14T06:15:37.176Z,99.90
2023-03-14T06:18:06.102Z,99.90
2023-03-14T06:20:36.388Z,99.90
2023-03-14T06:23:05.118Z,99.90
2023-03-14T06:25:33.842Z,99.90
2023-03-14T06:28:02.524Z,99.90
2023-03-14T06:30:32.299Z,99.90
2023-03-14T06:33:02.704Z,99.90
2023-03-14T06:35:31.733Z,71.60
2023-03-14T06:38:00.463Z,63.80
2023-03-14T06:40:29.628Z,34.40
2023-03-14T06:42:58.694Z,44.10
2023-03-14T06:45:27.508Z,29.70
2023-03-14T06:47:57.460Z,46.30
2023-03-14T06:50:27.837Z,29.10
2023-03-14T06:52:56.698Z,14.50
2023-03-14T06:55:26.031Z,17.80
2023-03-14T06:57:54.782Z,26.00
2023-03-14T07:00:24.042Z,23.60
2023-03-14T07:02:52.856Z,23.70
2023-03-14T07:05:21.614Z,27.20
2023-03-14T07:07:51.717Z,30.60
2023-03-14T07:10:20.526Z,10.20
2023-03-14T07:12:49.236Z,9.60
2023-03-14T07:15:19.476Z,8.80
2023-03-14T07:17:49.652Z,12.10
2023-03-14T07:20:18.704Z,12.20
2023-03-14T07:22:52.586Z,10.40
2023-03-14T07:25:21.216Z,16.80
2023-03-14T07:27:50.183Z,23.90
2023-03-14T07:30:19.379Z,16.60
2023-03-14T07:32:48.382Z,12.80
2023-03-14T07:35:17.266Z,19.30
2023-03-14T07:37:45.980Z,19.60
2023-03-14T07:40:16.680Z,22.50
2023-03-14T07:42:45.606Z,15.80
2023-03-14T07:45:15.246Z,13.40
2023-03-14T07:47:44.041Z,15.30
2023-03-14T07:50:14.235Z,22.90
2023-03-14T07:52:42.964Z,29.20
2023-03-14T07:55:14.790Z,30.90
2023-03-14T07:57:44.955Z,38.00
2023-03-14T08:00:16.158Z,37.80
2023-03-14T08:02:45.339Z,31.10
2023-03-14T08:05:16.116Z,35.70
2023-03-14T08:07:45.125Z,33.10
2023-03-14T08:10:17.034Z,40.30
2023-03-14T08:12:47.330Z,84.10
2023-03-14T08:15:16.109Z,52.50
2023-03-14T08:17:45.146Z,47.90
2023-03-14T08:20:14.857Z,65.30
2023-03-14T08:22:43.878Z,95.70
2023-03-14T08:25:13.100Z,78.60
2023-03-14T08:27:42.833Z,83.20
2023-03-14T08:30:15.112Z,79.70
2023-03-14T08:32:44.019Z,70.70
2023-03-14T08:35:13.625Z,73.90
2023-03-14T08:37:42.463Z,87.40
2023-03-14T08:40:13.206Z,99.90
2023-03-14T08:42:42.858Z,99.90
2023-03-14T08:45:18.323Z,99.90
2023-03-14T08:47:47.659Z,99.90
2023-03-14T08:50:16.920Z,99.90
2023-03-14T08:52:46.725Z,99.90
2023-03-14T08:55:15.426Z,99.90
2023-03-14T08:57:44.380Z,99.90
2023-03-14T09:00:16.509Z,99.90
2023-03-14T09:02:45.714Z,99.90
2023-03-14T09:05:15.389Z,99.90
2023-03-14T09:07:44.246Z,99.90
2023-03-14T09:10:13.639Z,99.90
2023-03-14T09:12:43.157Z,99.90
2023-03-14T09:15:14.278Z,99.90
2023-03-14T09:17:47.179Z,99.90
2023-03-14T09:20:16.268Z,99.90
2023-03-14T09:22:45.331Z,99.90
2023-03-14T09:25:14.342Z,99.90
2023-03-14T09:27:43.355Z,99.90
2023-03-14T09:30:14.979Z,99.90
2023-03-14T09:32:43.781Z,99.90
2023-03-14T09:35:12.723Z,94.10
2023-03-14T09:37:41.518Z,99.90
2023-03-14T09:40:15.916Z,99.90
2023-03-14T09:42:44.916Z,97.80
2023-03-14T09:45:19.509Z,91.00
2023-03-14T09:47:58.742Z,99.90
2023-03-14T09:50:32.435Z,99.90
2023-03-14T09:53:07.110Z,99.90
2023-03-14T09:55:36.853Z,99.90
2023-03-14T09:58:12.492Z,99.90
2023-03-14T10:00:42.865Z,99.90
2023-03-14T10:03:25.405Z,99.90
2023-03-14T10:05:54.877Z,99.90
2023-03-14T10:08:24.206Z,99.90
2023-03-14T10:10:54.378Z,99.90
2023-03-14T10:13:25.600Z,99.90
2023-03-14T10:15:57.480Z,99.90
2023-03-14T10:18:29.129Z,99.90
2023-03-14T10:21:08.075Z,99.90
2023-03-14T10:23:37.827Z,99.90
2023-03-14T10:26:11.031Z,99.90
2023-03-14T10:28:42.543Z,99.90
2023-03-14T10:31:12.804Z,99.90
2023-03-14T10:33:42.537Z,99.90
2023-03-14T10:36:23.007Z,90.10
2023-03-14T10:38:51.790Z,93.20
2023-03-14T10:41:26.653Z,65.70
2023-03-14T10:44:00.174Z,62.40
2023-03-14T10:46:33.859Z,65.90
2023-03-14T10:49:08.292Z,58.60
2023-03-14T10:51:37.802Z,70.80
2023-03-14T10:54:16.256Z,91.90
2023-03-14T10:56:45.305Z,99.90
2023-03-14T10:59:17.430Z,90.80
2023-03-14T11:01:55.631Z,86.90
2023-03-14T11:04:39.655Z,86.00
2023-03-14T11:07:14.606Z,50.90
2023-03-14T11:09:51.613Z,28.70
2023-03-14T11:12:38.256Z,11.60
2023-03-14T11:15:14.298Z,1.00
2023-03-14T11:17:54.355Z,1.00
2023-03-14T11:20:35.956Z,1.00
2023-03-14T11:23:11.289Z,1.00
2023-03-14T11:25:48.199Z,1.00
2023-03-14T11:28:32.529Z,1.00
2023-03-14T11:31:12.478Z,1.00
2023-03-14T11:33:49.332Z,1.00
2023-03-14T11:36:22.627Z,1.00
2023-03-14T11:38:53.095Z,1.00
2023-03-14T11:41:26.304Z,1.00
2023-03-14T11:43:58.317Z,1.00
2023-03-14T11:46:36.101Z,1.00
2023-03-14T11:49:13.610Z,1.00
2023-03-14T11:51:45.956Z,1.00
2023-03-14T11:54:20.888Z,1.00
2023-03-14T11:56:54.775Z,1.00
2023-03-14T11:59:30.409Z,1.00
2023-03-14T12:02:03.847Z,1.00
2023-03-14T12:04:48.043Z,1.00
2023-03-14T12:07:22.127Z,1.00
2023-03-14T12:09:51.979Z,1.00
2023-03-14T12:12:24.011Z,1.00
2023-03-14T12:14:57.972Z,1.00
2023-03-14T12:17:30.007Z,1.00
2023-03-14T12:20:15.190Z,3.80
2023-03-14T12:22:46.228Z,12.50
2023-03-14T12:25:22.311Z,18.80
2023-03-14T12:28:13.793Z,35.80
2023-03-14T12:30:43.940Z,42.00
2023-03-14T12:33:37.225Z,52.70
2023-03-14T12:36:22.788Z,53.00
2023-03-14T12:39:28.012Z,47.10
2023-03-14T12:42:06.222Z,60.60
2023-03-14T12:44:49.029Z,95.40
2023-03-14T12:47:47.366Z,98.20
2023-03-14T12:50:28.313Z,86.40
2023-03-14T12:53:36.772Z,72.60
2023-03-14T12:56:13.656Z,59.80
2023-03-14T12:58:52.413Z,68.70
2023-03-14T13:01:22.726Z,39.80
2023-03-14T13:03:56.173Z,46.80
2023-03-14T13:06:52.423Z,35.40
2023-03-14T13:09:57.389Z,49.00
2023-03-14T13:12:33.494Z,68.70
2023-03-14T13:15:04.206Z,79.60
2023-03-14T13:17:37.873Z,99.90
2023-03-14T13:20:15.372Z,99.90
2023-03-14T13:22:49.813Z,99.90
2023-03-14T13:25:22.270Z,99.90
2023-03-14T13:27:51.550Z,99.90
2023-03-14T13:30:25.133Z,99.90
2023-03-14T13:32:55.331Z,99.90
2023-03-14T13:35:27.641Z,99.90
2023-03-14T13:38:10.957Z,99.90
2023-03-14T13:40:45.301Z,99.90
2023-03-14T13:43:18.365Z,99.90
2023-03-14T13:45:59.327Z,99.90
2023-03-14T13:48:30.841Z,99.90
2023-03-14T13:51:04.256Z,99.90
2023-03-14T13:53:34.367Z,99.90
2023-03-14T13:56:06.640Z,99.90
2023-03-14T13:58:39.191Z,99.90
2023-03-14T14:01:14.997Z,99.90
2023-03-14T14:03:46.140Z,99.90
2023-03-14T14:06:28.873Z,99.90
2023-03-14T14:09:00.602Z,99.90
2023-03-14T14:11:48.861Z,99.90
2023-03-14T14:14:29.635Z,99.90
2023-03-14T14:17:00.330Z,99.90
2023-03-14T14:19:32.590Z,99.90
2023-03-14T14:22:02.978Z,99.90
2023-03-14T14:24:33.706Z,99.90
2023-03-14T14:27:10.846Z,99.90
2023-03-14T14:29:40.138Z,99.90
2023-03-14T14:32:16.107Z,99.90
2023-03-14T14:35:29.374Z,99.90
2023-03-14T14:38:01.419Z,99.90
2023-03-14T14:40:32.704Z,99.90
2023-03-14T14:43:07.969Z,99.90
2023-03-14T14:45:37.889Z,99.90
2023-03-14T14:48:09.631Z,99.90
2023-03-14T14:50:41.732Z,99.90
2023-03-14T14:53:26.617Z,99.90
2023-03-14T14:55:57.682Z,99.90
2023-03-14T14:58:31.049Z,99.90
2023-03-14T15:01:05.600Z,99.90
2023-03-14T15:03:37.258Z,99.90
2023-03-14T15:06:07.138Z,99.90
2023-03-14T15:08:36.089Z,99.90
2023-03-14T15:11:05.359Z,99.90
2023-03-14T15:13:36.318Z,99.90
2023-03-14T15:16:05.506Z,93.20
2023-03-14T15:18:34.497Z,90.00
2023-03-14T15:21:03.585Z,86.10
2023-03-14T15:23:32.647Z,34.40
2023-03-14T15:26:01.583Z,25.00
2023-03-14T15:28:32.037Z,17.70
2023-03-14T15:31:02.517Z,3.60
2023-03-14T15:33:31.345Z,1.00
2023-03-14T15:36:01.407Z,1.00
2023-03-14T15:38:30.330Z,1.00
2023-03-14T15:40:59.072Z,1.00
2023-03-14T15:43:27.878Z,1.00
2023-03-14T15:45:58.416Z,1.00
2023-03-14T15:48:28.898Z,1.00
2023-03-14T15:50:57.687Z,1.00
2023-03-14T15:53:26.578Z,1.00
2023-03-14T15:55:55.511Z,1.00
2023-03-14T15:58:24.496Z,1.00
2023-03-14T16:00:53.711Z,1.00
2023-03-14T16:03:22.615Z,1.00
2023-03-14T16:05:53.016Z,1.00
2023-03-14T16:08:21.726Z,1.00
2023-03-14T16:10:51.341Z,1.00
2023-03-14T16:13:20.711Z,1.00
2023-03-14T16:15:57.135Z,1.00
2023-03-14T16:18:26.077Z,1.00
2023-03-14T16:20:58.705Z,1.00
2023-03-14T16:23:28.810Z,1.00
2023-03-14T16:25:58.573Z,1.00
2023-03-14T16:28:27.781Z,1.00
2023-03-14T16:31:05.312Z,1.00
2023-03-14T16:33:36.185Z,1.00
2023-03-14T16:36:10.055Z,1.00
2023-03-14T16:38:41.562Z,1.00
2023-03-14T16:41:14.246Z,1.00
2023-03-14T16:43:44.191Z,1.00
2023-03-14T16:46:17.258Z,1.00
2023-03-14T16:48:47.038Z,1.00
2023-03-14T16:51:18.112Z,3.40
2023-03-14T16:53:49.786Z,6.10
2023-03-14T16:56:18.951Z,8.00
2023-03-14T16:58:49.026Z,3.70
2023-03-14T17:01:20.130Z,5.40
2023-03-14T17:03:52.011Z,14.00
2023-03-14T17:06:25.810Z,27.20
2023-03-14T17:08:58.112Z,21.10
2023-03-14T17:11:28.255Z,29.30
2023-03-14T17:13:57.829Z,33.10
2023-03-14T17:16:30.703Z,35.90
2023-03-14T17:18:59.750Z,54.00
2023-03-14T17:21:31.234Z,56.60
2023-03-14T17:24:04.008Z,70.70
2023-03-14T17:26:33.907Z,91.10
2023-03-14T17:29:04.321Z,90.00
2023-03-14T17:31:39.642Z,91.70
2023-03-14T17:34:12.280Z,95.70
2023-03-14T17:36:43.606Z,94.00
2023-03-14T17:39:13.302Z,98.60
2023-03-14T17:41:43.581Z,99.90
2023-03-14T17:44:13.477Z,99.90
2023-03-14T17:46:45.285Z,99.90
2023-03-14T17:49:15.160Z,99.90
2023-03-14T17:51:47.188Z,99.90
2023-03-14T17:54:17.094Z,99.90
2023-03-14T17:56:49.705Z,99.90
2023-03-14T17:59:21.195Z,99.90
2023-03-14T18:01:53.182Z,99.90
2023-03-14T18:04:23.391Z,99.90
2023-03-14T18:06:56.254Z,99.90
2023-03-14T18:09:26.881Z,99.90
2023-03-14T18:12:08.452Z,99.90
2023-03-14T18:14:39.454Z,99.90
2023-03-14T18:17:13.493Z,99.90
2023-03-14T18:19:44.871Z,99.90
2023-03-14T18:22:17.421Z,99.90
2023-03-14T18:24:48.613Z,99.90
2023-03-14T18:27:20.955Z,99.90
2023-03-14T18:29:52.361Z,99.90
2023-03-14T18:32:24.979Z,99.90
2023-03-14T18:34:56.232Z,99.90
2023-03-14T18:37:29.275Z,99.90
2023-03-14T18:40:00.380Z,99.90
2023-03-14T18:42:31.411Z,99.90
2023-03-14T18:45:02.586Z,99.90
2023-03-14T18:47:36.546Z,99.90
2023-03-14T18:50:09.312Z,99.90
2023-03-14T18:52:44.347Z,99.90
2023-03-14T18:55:15.220Z,99.90
2023-03-14T18:57:48.552Z,99.90
2023-03-14T19:00:24.252Z,99.90
2023-03-14T19:02:54.713Z,99.90
2023-03-14T19:05:31.033Z,99.90
2023-03-14T19:08:06.484Z,99.90
2023-03-14T19:10:40.723Z,99.90
2023-03-14T19:13:13.717Z,99.90
2023-03-14T19:15:46.808Z,99.90
2023-03-14T19:18:18.336Z,99.90
2023-03-14T19:21:16.208Z,99.90
2023-03-14T19:23:55.292Z,99.90
2023-03-14T19:26:40.367Z,99.90
2023-03-14T19:29:44.960Z,99.90
2023-03-14T19:32:25.423Z,99.90
2023-03-14T19:35:01.439Z,99.90
2023-03-14T19:37:41.046Z,99.90
2023-03-14T19:40:17.658Z,99.90
2023-03-14T19:42:49.547Z,99.90
2023-03-14T19:45:21.812Z,99.90
2023-03-14T19:47:54.281Z,99.90
2023-03-14T19:50:27.013Z,1.00
2023-03-14T19:52:58.490Z,99.90
2023-03-14T19:55:35.688Z,99.90
2023-03-14T19:58:07.544Z,1.00
2023-03-14T20:00:40.028Z,1.00
2023-03-14T20:03:13.588Z,20.80
2023-03-14T20:05:45.689Z,60.40
2023-03-14T20:08:19.014Z,99.90
2023-03-14T20:10:53.420Z,99.90
2023-03-14T20:13:25.217Z,99.90
2023-03-14T20:15:56.437Z,99.90
2023-03-14T20:18:28.819Z,99.90
2023-03-14T20:21:00.419Z,99.90
2023-03-14T20:23:32.531Z,99.90
2023-03-14T20:26:08.371Z,99.90
2023-03-14T20:28:39.853Z,99.90
2023-03-14T20:31:16.587Z,99.90
2023-03-14T20:33:51.287Z,92.20
2023-03-14T20:36:23.878Z,51.10
2023-03-14T20:38:55.658Z,84.10
2023-03-14T20:41:28.578Z,76.70
2023-03-14T20:43:58.668Z,99.90
2023-03-14T20:46:57.595Z,99.90
2023-03-14T20:49:31.348Z,99.90
2023-03-14T20:52:02.270Z,99.90
2023-03-14T20:54:43.743Z,99.90
2023-03-14T20:57:19.874Z,99.90
2023-03-14T20:59:50.465Z,90.10
2023-03-14T21:02:20.883Z,99.90
2023-03-14T21:04:50.741Z,99.90
2023-03-14T21:07:22.128Z,99.90
2023-03-14T21:09:52.885Z,96.40
2023-03-14T21:12:26.881Z,59.70
2023-03-14T21:14:57.604Z,95.70
2023-03-14T21:17:28.804Z,83.90
2023-03-14T21:19:59.722Z,99.90
2023-03-14T21:22:30.030Z,81.60
2023-03-14T21:24:59.964Z,56.70
2023-03-14T21:27:31.674Z,10.60
2023-03-14T21:30:04.115Z,39.90
2023-03-14T21:32:34.136Z,38.00
2023-03-14T21:35:03.463Z,21.30
2023-03-14T21:37:32.570Z,14.00
2023-03-14T21:40:01.535Z,30.90
2023-03-14T21:42:32.681Z,22.20
2023-03-14T21:45:01.473Z,1.00
2023-03-14T21:47:30.454Z,22.50
2023-03-14T21:49:59.193Z,1.00
2023-03-14T21:52:28.689Z,1.00
2023-03-14T21:54:57.465Z,1.00
2023-03-14T21:57:30.092Z,1.00
2023-03-14T22:00:00.482Z,1.00
2023-03-14T22:02:29.351Z,1.00
2023-03-14T22:04:58.381Z,1.00
2023-03-14T22:07:27.207Z,1.00
2023-03-14T22:09:56.258Z,1.00
2023-03-14T22:12:24.915Z,1.00
2023-03-14T22:14:55.424Z,1.00
2023-03-14T22:17:25.852Z,1.00
2023-03-14T22:19:55.134Z,1.00
2023-03-14T22:22:23.868Z,99.90
2023-03-14T22:24:53.528Z,1.00
2023-03-14T22:27:24.915Z,1.00
2023-03-14T22:29:53.663Z,1.00
2023-03-14T22:32:22.438Z,1.00
2023-03-14T22:34:52.475Z,1.00
2023-03-14T22:37:21.509Z,1.00
2023-03-14T22:39:50.483Z,1.00
2023-03-14T22:42:19.108Z,1.00
2023-03-14T22:44:47.872Z,1.00
2023-03-14T22:47:16.608Z,1.00
2023-03-14T22:49:45.313Z,1.00
2023-03-14T22:52:15.455Z,1.00
2023-03-14T22:54:45.155Z,1.00
2023-03-14T22:57:14.046Z,1.00
2023-03-14T22:59:42.602Z,1.00
2023-03-14T23:03:05.825Z,1.00
2023-03-14T23:05:35.079Z,1.00
2023-03-14T23:08:05.518Z,1.00
2023-03-14T23:10:34.410Z,1.00
2023-03-14T23:13:05.856Z,1.00
2023-03-14T23:15:35.852Z,1.00
2023-03-14T23:18:04.675Z,1.00
2023-03-14T23:20:33.588Z,1.00
2023-03-14T23:23:02.519Z,1.00
2023-03-14T23:25:38.508Z,1.00
2023-03-14T23:28:11.000Z,1.00
2023-03-14T23:30:42.217Z,1.00
2023-03-14T23:33:11.040Z,1.00
2023-03-14T23:35:39.768Z,1.00
2023-03-14T23:38:08.357Z,1.00
2023-03-14T23:40:39.101Z,1.00
2023-03-14T23:43:07.832Z,1.00
2023-03-14T23:45:36.503Z,1.00
2023-03-14T23:48:05.619Z,1.00
2023-03-14T23:50:36.936Z,1.00
2023-03-14T23:53:05.600Z,1.00
2023-03-14T23:55:34.264Z,1.00
2023-03-14T23:58:04.717Z,1.00
